sensor_id;sensor_type;location;lat;lon;timestamp;P1;durP1;ratioP1;P2;durP2;ratioP2
20627;SDS011;10473;42.734;24.258;2023-11-21T00:00:16;14.27;;;4.93;;
20627;SDS011;10473;42.734;24.258;2023-11-21T00:02:44;1.57;;;1.37;;
20627;SDS011;10473;42.734;24.258;2023-11-21T00:05:12;0.53;;;0.53;;
20627;SDS011;10473;42.734;24.258;2023-11-21T00:07:42;0.30;;;0.30;;
20627;SDS011;10473;42.734;24.258;2023-11-21T00:10:09;0.00;;;0.00;;
20627;SDS011;10473;42.734;24.258;2023-11-21T00:12:41;0.20;;;0.20;;
20627;SDS011;10473;42.734;24.258;2023-11-21T00:15:10;0.47;;;0.40;;
20627;SDS011;10473;42.734;24.258;2023-11-21T00:17:38;0.40;;;0.40;;
20627;SDS011;10473;42.734;24.258;2023-11-21T00:20:06;0.53;;;0.53;;
20627;SDS011;10473;42.734;24.258;2023-11-21T00:22:34;1.93;;;0.57;;
20627;SDS011;10473;42.734;24.258;2023-11-21T00:25:03;0.30;;;0.30;;
20627;SDS011;10473;42.734;24.258;2023-11-21T00:27:31;0.37;;;0.20;;
20627;SDS011;10473;42.734;24.258;2023-11-21T00:30:00;0.20;;;0.20;;
20627;SDS011;10473;42.734;24.258;2023-11-21T00:32:30;0.77;;;0.60;;
20627;SDS011;10473;42.734;24.258;2023-11-21T00:34:57;0.30;;;0.30;;
20627;SDS011;10473;42.734;24.258;2023-11-21T00:37:28;0.13;;;0.13;;
20627;SDS011;10473;42.734;24.258;2023-11-21T00:39:58;0.10;;;0.10;;
20627;SDS011;10473;42.734;24.258;2023-11-21T00:42:25;0.53;;;0.50;;
20627;SDS011;10473;42.734;24.258;2023-11-21T00:44:53;0.00;;;0.00;;
20627;SDS011;10473;42.734;24.258;2023-11-21T00:47:22;0.40;;;0.40;;
20627;SDS011;10473;42.734;24.258;2023-11-21T00:49:50;0.00;;;0.00;;
20627;SDS011;10473;42.734;24.258;2023-11-21T00:52:17;0.00;;;0.00;;
20627;SDS011;10473;42.734;24.258;2023-11-21T00:54:45;0.77;;;0.77;;
20627;SDS011;10473;42.734;24.258;2023-11-21T00:57:14;0.40;;;0.30;;
20627;SDS011;10473;42.734;24.258;2023-11-21T00:59:42;13.93;;;0.60;;
20627;SDS011;10473;42.734;24.258;2023-11-21T01:02:09;0.40;;;0.40;;
20627;SDS011;10473;42.734;24.258;2023-11-21T01:04:38;2.90;;;0.50;;
20627;SDS011;10473;42.734;24.258;2023-11-21T01:07:06;0.50;;;0.50;;
20627;SDS011;10473;42.734;24.258;2023-11-21T01:09:34;0.60;;;0.60;;
20627;SDS011;10473;42.734;24.258;2023-11-21T01:12:02;2.57;;;2.40;;
20627;SDS011;10473;42.734;24.258;2023-11-21T01:14:30;0.90;;;0.90;;
20627;SDS011;10473;42.734;24.258;2023-11-21T01:16:57;0.17;;;0.17;;
20627;SDS011;10473;42.734;24.258;2023-11-21T01:19:25;0.53;;;0.53;;
20627;SDS011;10473;42.734;24.258;2023-11-21T01:21:56;0.20;;;0.20;;
20627;SDS011;10473;42.734;24.258;2023-11-21T01:24:24;0.10;;;0.10;;
20627;SDS011;10473;42.734;24.258;2023-11-21T01:26:51;0.17;;;0.17;;
20627;SDS011;10473;42.734;24.258;2023-11-21T01:29:19;0.17;;;0.17;;
20627;SDS011;10473;42.734;24.258;2023-11-21T01:31:47;0.10;;;0.03;;
20627;SDS011;10473;42.734;24.258;2023-11-21T01:34:14;0.30;;;0.17;;
20627;SDS011;10473;42.734;24.258;2023-11-21T01:36:42;1.20;;;0.57;;
20627;SDS011;10473;42.734;24.258;2023-11-21T01:39:12;0.43;;;0.40;;
20627;SDS011;10473;42.734;24.258;2023-11-21T01:41:41;1.13;;;1.00;;
20627;SDS011;10473;42.734;24.258;2023-11-21T01:44:11;0.50;;;0.50;;
20627;SDS011;10473;42.734;24.258;2023-11-21T01:46:39;0.10;;;0.10;;
20627;SDS011;10473;42.734;24.258;2023-11-21T01:49:07;0.20;;;0.13;;
20627;SDS011;10473;42.734;24.258;2023-11-21T01:51:39;0.00;;;0.00;;
20627;SDS011;10473;42.734;24.258;2023-11-21T01:54:09;0.00;;;0.00;;
20627;SDS011;10473;42.734;24.258;2023-11-21T01:56:39;0.47;;;0.17;;
20627;SDS011;10473;42.734;24.258;2023-11-21T01:59:07;0.00;;;0.00;;
20627;SDS011;10473;42.734;24.258;2023-11-21T02:01:35;1.07;;;0.47;;
20627;SDS011;10473;42.734;24.258;2023-11-21T02:04:02;0.00;;;0.00;;
20627;SDS011;10473;42.734;24.258;2023-11-21T02:06:30;0.00;;;0.00;;
20627;SDS011;10473;42.734;24.258;2023-11-21T02:08:58;0.00;;;0.00;;
20627;SDS011;10473;42.734;24.258;2023-11-21T02:11:26;0.20;;;0.20;;
20627;SDS011;10473;42.734;24.258;2023-11-21T02:13:56;0.20;;;0.20;;
20627;SDS011;10473;42.734;24.258;2023-11-21T02:16:26;0.10;;;0.10;;
20627;SDS011;10473;42.734;24.258;2023-11-21T02:18:57;0.10;;;0.10;;
20627;SDS011;10473;42.734;24.258;2023-11-21T02:21:25;0.30;;;0.30;;
20627;SDS011;10473;42.734;24.258;2023-11-21T02:23:54;0.07;;;0.07;;
20627;SDS011;10473;42.734;24.258;2023-11-21T02:26:22;0.00;;;0.00;;
20627;SDS011;10473;42.734;24.258;2023-11-21T02:28:51;0.30;;;0.30;;
20627;SDS011;10473;42.734;24.258;2023-11-21T02:31:20;0.10;;;0.10;;
20627;SDS011;10473;42.734;24.258;2023-11-21T02:33:48;0.00;;;0.00;;
20627;SDS011;10473;42.734;24.258;2023-11-21T02:36:16;0.10;;;0.10;;
20627;SDS011;10473;42.734;24.258;2023-11-21T02:38:45;0.10;;;0.10;;
20627;SDS011;10473;42.734;24.258;2023-11-21T02:41:14;0.10;;;0.10;;
20627;SDS011;10473;42.734;24.258;2023-11-21T02:43:42;0.10;;;0.10;;
20627;SDS011;10473;42.734;24.258;2023-11-21T02:46:09;0.20;;;0.20;;
20627;SDS011;10473;42.734;24.258;2023-11-21T02:48:39;0.20;;;0.20;;
20627;SDS011;10473;42.734;24.258;2023-11-21T02:51:07;0.70;;;0.20;;
20627;SDS011;10473;42.734;24.258;2023-11-21T02:53:34;0.00;;;0.00;;
20627;SDS011;10473;42.734;24.258;2023-11-21T02:56:05;0.07;;;0.07;;
20627;SDS011;10473;42.734;24.258;2023-11-21T02:58:34;0.50;;;0.50;;
20627;SDS011;10473;42.734;24.258;2023-11-21T03:01:02;0.70;;;0.70;;
20627;SDS011;10473;42.734;24.258;2023-11-21T03:03:31;1.43;;;1.33;;
20627;SDS011;10473;42.734;24.258;2023-11-21T03:05:59;0.10;;;0.10;;
20627;SDS011;10473;42.734;24.258;2023-11-21T03:08:27;1.40;;;1.27;;
20627;SDS011;10473;42.734;24.258;2023-11-21T03:10:54;0.80;;;0.80;;
20627;SDS011;10473;42.734;24.258;2023-11-21T03:13:22;0.00;;;0.00;;
20627;SDS011;10473;42.734;24.258;2023-11-21T03:15:52;0.33;;;0.33;;
20627;SDS011;10473;42.734;24.258;2023-11-21T03:18:19;0.07;;;0.07;;
20627;SDS011;10473;42.734;24.258;2023-11-21T03:20:48;0.20;;;0.20;;
20627;SDS011;10473;42.734;24.258;2023-11-21T03:23:15;0.00;;;0.00;;
20627;SDS011;10473;42.734;24.258;2023-11-21T03:25:43;0.10;;;0.10;;
20627;SDS011;10473;42.734;24.258;2023-11-21T03:28:11;0.00;;;0.00;;
20627;SDS011;10473;42.734;24.258;2023-11-21T03:30:39;0.00;;;0.00;;
20627;SDS011;10473;42.734;24.258;2023-11-21T03:33:09;0.10;;;0.10;;
20627;SDS011;10473;42.734;24.258;2023-11-21T03:35:36;0.00;;;0.00;;
20627;SDS011;10473;42.734;24.258;2023-11-21T03:38:04;0.10;;;0.10;;
20627;SDS011;10473;42.734;24.258;2023-11-21T03:40:32;0.00;;;0.00;;
20627;SDS011;10473;42.734;24.258;2023-11-21T03:43:01;0.00;;;0.00;;
20627;SDS011;10473;42.734;24.258;2023-11-21T03:45:29;0.00;;;0.00;;
20627;SDS011;10473;42.734;24.258;2023-11-21T03:47:56;0.00;;;0.00;;
20627;SDS011;10473;42.734;24.258;2023-11-21T03:50:26;0.00;;;0.00;;
20627;SDS011;10473;42.734;24.258;2023-11-21T03:52:53;0.07;;;0.00;;
20627;SDS011;10473;42.734;24.258;2023-11-21T03:55:21;0.00;;;0.00;;
20627;SDS011;10473;42.734;24.258;2023-11-21T03:57:50;0.00;;;0.00;;
20627;SDS011;10473;42.734;24.258;2023-11-21T04:00:19;0.40;;;0.40;;
20627;SDS011;10473;42.734;24.258;2023-11-21T04:02:47;0.57;;;0.57;;
20627;SDS011;10473;42.734;24.258;2023-11-21T04:05:17;0.80;;;0.77;;
20627;SDS011;10473;42.734;24.258;2023-11-21T04:07:46;0.70;;;0.70;;
20627;SDS011;10473;42.734;24.258;2023-11-21T04:10:14;0.30;;;0.30;;
20627;SDS011;10473;42.734;24.258;2023-11-21T04:12:42;0.57;;;0.20;;
20627;SDS011;10473;42.734;24.258;2023-11-21T04:15:11;3.70;;;0.50;;
20627;SDS011;10473;42.734;24.258;2023-11-21T04:17:39;1.30;;;0.67;;
20627;SDS011;10473;42.734;24.258;2023-11-21T04:20:07;0.10;;;0.10;;
20627;SDS011;10473;42.734;24.258;2023-11-21T04:22:39;0.10;;;0.10;;
20627;SDS011;10473;42.734;24.258;2023-11-21T04:25:11;0.10;;;0.10;;
20627;SDS011;10473;42.734;24.258;2023-11-21T04:27:41;0.00;;;0.00;;
20627;SDS011;10473;42.734;24.258;2023-11-21T04:30:10;0.10;;;0.10;;
20627;SDS011;10473;42.734;24.258;2023-11-21T04:32:38;0.10;;;0.07;;
20627;SDS011;10473;42.734;24.258;2023-11-21T04:35:08;0.00;;;0.00;;
20627;SDS011;10473;42.734;24.258;2023-11-21T04:37:36;0.60;;;0.20;;
20627;SDS011;10473;42.734;24.258;2023-11-21T04:40:04;0.27;;;0.27;;
20627;SDS011;10473;42.734;24.258;2023-11-21T04:42:35;0.10;;;0.10;;
20627;SDS011;10473;42.734;24.258;2023-11-21T04:45:03;2.50;;;1.20;;
20627;SDS011;10473;42.734;24.258;2023-11-21T04:47:34;0.87;;;0.70;;
20627;SDS011;10473;42.734;24.258;2023-11-21T04:50:05;1.50;;;1.40;;
20627;SDS011;10473;42.734;24.258;2023-11-21T04:52:33;0.40;;;0.40;;
20627;SDS011;10473;42.734;24.258;2023-11-21T04:55:01;0.63;;;0.20;;
20627;SDS011;10473;42.734;24.258;2023-11-21T04:57:29;1.63;;;1.50;;
20627;SDS011;10473;42.734;24.258;2023-11-21T04:59:58;2.33;;;1.93;;
20627;SDS011;10473;42.734;24.258;2023-11-21T05:02:26;3.23;;;1.80;;
20627;SDS011;10473;42.734;24.258;2023-11-21T05:04:54;4.67;;;2.67;;
20627;SDS011;10473;42.734;24.258;2023-11-21T05:07:23;2.60;;;2.50;;
20627;SDS011;10473;42.734;24.258;2023-11-21T05:09:55;0.63;;;0.63;;
20627;SDS011;10473;42.734;24.258;2023-11-21T05:12:23;2.37;;;2.17;;
20627;SDS011;10473;42.734;24.258;2023-11-21T05:14:52;1.23;;;1.13;;
20627;SDS011;10473;42.734;24.258;2023-11-21T05:17:23;0.43;;;0.43;;
20627;SDS011;10473;42.734;24.258;2023-11-21T05:19:51;1.67;;;1.57;;
20627;SDS011;10473;42.734;24.258;2023-11-21T05:22:18;0.73;;;0.73;;
20627;SDS011;10473;42.734;24.258;2023-11-21T05:24:47;0.20;;;0.20;;
20627;SDS011;10473;42.734;24.258;2023-11-21T05:27:14;0.00;;;0.00;;
20627;SDS011;10473;42.734;24.258;2023-11-21T05:29:42;0.00;;;0.00;;
20627;SDS011;10473;42.734;24.258;2023-11-21T05:32:09;1.10;;;0.47;;
20627;SDS011;10473;42.734;24.258;2023-11-21T05:34:39;0.10;;;0.10;;
20627;SDS011;10473;42.734;24.258;2023-11-21T05:37:07;0.10;;;0.10;;
20627;SDS011;10473;42.734;24.258;2023-11-21T05:39:34;0.30;;;0.30;;
20627;SDS011;10473;42.734;24.258;2023-11-21T05:42:02;0.00;;;0.00;;
20627;SDS011;10473;42.734;24.258;2023-11-21T05:44:30;0.70;;;0.70;;
20627;SDS011;10473;42.734;24.258;2023-11-21T05:46:58;0.53;;;0.30;;
20627;SDS011;10473;42.734;24.258;2023-11-21T05:49:26;0.10;;;0.10;;
20627;SDS011;10473;42.734;24.258;2023-11-21T05:51:55;0.10;;;0.10;;
20627;SDS011;10473;42.734;24.258;2023-11-21T05:54:23;0.20;;;0.20;;
20627;SDS011;10473;42.734;24.258;2023-11-21T05:56:51;0.20;;;0.20;;
20627;SDS011;10473;42.734;24.258;2023-11-21T05:59:19;0.07;;;0.07;;
20627;SDS011;10473;42.734;24.258;2023-11-21T06:01:47;0.50;;;0.50;;
20627;SDS011;10473;42.734;24.258;2023-11-21T06:04:15;0.43;;;0.43;;
20627;SDS011;10473;42.734;24.258;2023-11-21T06:06:44;0.70;;;0.70;;
20627;SDS011;10473;42.734;24.258;2023-11-21T06:09:13;0.30;;;0.30;;
20627;SDS011;10473;42.734;24.258;2023-11-21T06:11:40;0.73;;;0.63;;
20627;SDS011;10473;42.734;24.258;2023-11-21T06:14:08;1.00;;;0.83;;
20627;SDS011;10473;42.734;24.258;2023-11-21T06:16:37;1.10;;;1.00;;
20627;SDS011;10473;42.734;24.258;2023-11-21T06:19:06;1.53;;;1.43;;
20627;SDS011;10473;42.734;24.258;2023-11-21T06:21:33;1.83;;;1.43;;
20627;SDS011;10473;42.734;24.258;2023-11-21T06:24:01;1.47;;;1.37;;
20627;SDS011;10473;42.734;24.258;2023-11-21T06:26:30;1.67;;;1.57;;
20627;SDS011;10473;42.734;24.258;2023-11-21T06:28:59;1.03;;;1.00;;
20627;SDS011;10473;42.734;24.258;2023-11-21T06:31:29;0.77;;;0.77;;
20627;SDS011;10473;42.734;24.258;2023-11-21T06:33:58;0.57;;;0.47;;
20627;SDS011;10473;42.734;24.258;2023-11-21T06:36:26;0.80;;;0.80;;
20627;SDS011;10473;42.734;24.258;2023-11-21T06:38:54;1.07;;;1.07;;
20627;SDS011;10473;42.734;24.258;2023-11-21T06:41:22;1.23;;;1.13;;
20627;SDS011;10473;42.734;24.258;2023-11-21T06:43:51;0.93;;;0.93;;
20627;SDS011;10473;42.734;24.258;2023-11-21T06:46:19;0.47;;;0.40;;
20627;SDS011;10473;42.734;24.258;2023-11-21T06:48:46;0.60;;;0.53;;
20627;SDS011;10473;42.734;24.258;2023-11-21T06:51:15;1.80;;;1.70;;
20627;SDS011;10473;42.734;24.258;2023-11-21T06:53:43;1.13;;;1.13;;
20627;SDS011;10473;42.734;24.258;2023-11-21T06:56:17;1.80;;;1.67;;
20627;SDS011;10473;42.734;24.258;2023-11-21T06:58:45;4.43;;;3.27;;
20627;SDS011;10473;42.734;24.258;2023-11-21T07:01:15;4.83;;;4.37;;
20627;SDS011;10473;42.734;24.258;2023-11-21T07:03:42;5.23;;;4.23;;
20627;SDS011;10473;42.734;24.258;2023-11-21T07:06:11;4.90;;;3.90;;
20627;SDS011;10473;42.734;24.258;2023-11-21T07:08:38;0.30;;;0.30;;
20627;SDS011;10473;42.734;24.258;2023-11-21T07:11:06;2.33;;;0.83;;
20627;SDS011;10473;42.734;24.258;2023-11-21T07:13:34;0.40;;;0.30;;
20627;SDS011;10473;42.734;24.258;2023-11-21T07:16:01;0.30;;;0.20;;
20627;SDS011;10473;42.734;24.258;2023-11-21T07:18:31;0.97;;;0.53;;
20627;SDS011;10473;42.734;24.258;2023-11-21T07:20:59;0.30;;;0.30;;
20627;SDS011;10473;42.734;24.258;2023-11-21T07:23:28;0.63;;;0.30;;
20627;SDS011;10473;42.734;24.258;2023-11-21T07:25:55;1.17;;;1.00;;
20627;SDS011;10473;42.734;24.258;2023-11-21T07:28:24;1.53;;;1.43;;
20627;SDS011;10473;42.734;24.258;2023-11-21T07:30:52;3.83;;;0.40;;
20627;SDS011;10473;42.734;24.258;2023-11-21T07:33:19;0.10;;;0.10;;
20627;SDS011;10473;42.734;24.258;2023-11-21T07:35:49;0.00;;;0.00;;
20627;SDS011;10473;42.734;24.258;2023-11-21T07:38:16;0.10;;;0.10;;
20627;SDS011;10473;42.734;24.258;2023-11-21T07:40:45;0.10;;;0.10;;
20627;SDS011;10473;42.734;24.258;2023-11-21T07:43:13;0.03;;;0.03;;
20627;SDS011;10473;42.734;24.258;2023-11-21T07:45:41;1.23;;;1.00;;
20627;SDS011;10473;42.734;24.258;2023-11-21T07:48:09;0.00;;;0.00;;
20627;SDS011;10473;42.734;24.258;2023-11-21T07:50:37;0.30;;;0.30;;
20627;SDS011;10473;42.734;24.258;2023-11-21T07:53:06;0.47;;;0.47;;
20627;SDS011;10473;42.734;24.258;2023-11-21T07:55:33;0.23;;;0.23;;
20627;SDS011;10473;42.734;24.258;2023-11-21T07:58:02;3.37;;;0.83;;
20627;SDS011;10473;42.734;24.258;2023-11-21T08:00:30;0.10;;;0.10;;
20627;SDS011;10473;42.734;24.258;2023-11-21T08:02:58;0.23;;;0.23;;
20627;SDS011;10473;42.734;24.258;2023-11-21T08:05:25;0.40;;;0.30;;
20627;SDS011;10473;42.734;24.258;2023-11-21T08:07:53;0.30;;;0.30;;
20627;SDS011;10473;42.734;24.258;2023-11-21T08:10:22;0.10;;;0.10;;
20627;SDS011;10473;42.734;24.258;2023-11-21T08:12:51;0.33;;;0.33;;
20627;SDS011;10473;42.734;24.258;2023-11-21T08:15:19;0.10;;;0.10;;
20627;SDS011;10473;42.734;24.258;2023-11-21T08:17:49;0.10;;;0.10;;
20627;SDS011;10473;42.734;24.258;2023-11-21T08:20:17;0.10;;;0.10;;
20627;SDS011;10473;42.734;24.258;2023-11-21T08:22:44;0.10;;;0.10;;
20627;SDS011;10473;42.734;24.258;2023-11-21T08:25:13;0.13;;;0.13;;
20627;SDS011;10473;42.734;24.258;2023-11-21T08:27:42;0.10;;;0.10;;
20627;SDS011;10473;42.734;24.258;2023-11-21T08:30:11;0.20;;;0.20;;
20627;SDS011;10473;42.734;24.258;2023-11-21T08:32:40;0.13;;;0.13;;
20627;SDS011;10473;42.734;24.258;2023-11-21T08:35:07;1.03;;;0.30;;
20627;SDS011;10473;42.734;24.258;2023-11-21T08:37:36;0.30;;;0.30;;
20627;SDS011;10473;42.734;24.258;2023-11-21T08:40:05;0.40;;;0.40;;
20627;SDS011;10473;42.734;24.258;2023-11-21T08:42:35;0.10;;;0.10;;
20627;SDS011;10473;42.734;24.258;2023-11-21T08:45:05;0.10;;;0.10;;
20627;SDS011;10473;42.734;24.258;2023-11-21T08:47:34;3.53;;;0.30;;
20627;SDS011;10473;42.734;24.258;2023-11-21T08:50:03;0.03;;;0.03;;
20627;SDS011;10473;42.734;24.258;2023-11-21T08:52:32;2.57;;;0.57;;
20627;SDS011;10473;42.734;24.258;2023-11-21T08:54:59;0.10;;;0.10;;
20627;SDS011;10473;42.734;24.258;2023-11-21T08:57:34;0.10;;;0.10;;
20627;SDS011;10473;42.734;24.258;2023-11-21T09:00:02;0.20;;;0.20;;
20627;SDS011;10473;42.734;24.258;2023-11-21T09:02:35;0.43;;;0.30;;
20627;SDS011;10473;42.734;24.258;2023-11-21T09:05:03;0.30;;;0.30;;
20627;SDS011;10473;42.734;24.258;2023-11-21T09:07:31;0.10;;;0.10;;
20627;SDS011;10473;42.734;24.258;2023-11-21T09:09:59;0.40;;;0.40;;
20627;SDS011;10473;42.734;24.258;2023-11-21T09:12:27;0.10;;;0.10;;
20627;SDS011;10473;42.734;24.258;2023-11-21T09:14:54;0.30;;;0.30;;
20627;SDS011;10473;42.734;24.258;2023-11-21T09:17:22;0.10;;;0.10;;
20627;SDS011;10473;42.734;24.258;2023-11-21T09:19:51;0.10;;;0.10;;
20627;SDS011;10473;42.734;24.258;2023-11-21T09:22:19;0.10;;;0.10;;
20627;SDS011;10473;42.734;24.258;2023-11-21T09:24:46;0.43;;;0.30;;
20627;SDS011;10473;42.734;24.258;2023-11-21T09:27:14;0.47;;;0.30;;
20627;SDS011;10473;42.734;24.258;2023-11-21T09:29:43;0.10;;;0.10;;
20627;SDS011;10473;42.734;24.258;2023-11-21T09:32:11;0.10;;;0.10;;
20627;SDS011;10473;42.734;24.258;2023-11-21T09:34:40;0.10;;;0.10;;
20627;SDS011;10473;42.734;24.258;2023-11-21T09:37:09;0.10;;;0.10;;
20627;SDS011;10473;42.734;24.258;2023-11-21T09:39:37;0.10;;;0.10;;
20627;SDS011;10473;42.734;24.258;2023-11-21T09:42:08;0.10;;;0.10;;
20627;SDS011;10473;42.734;24.258;2023-11-21T09:44:42;0.00;;;0.00;;
20627;SDS011;10473;42.734;24.258;2023-11-21T09:47:15;0.10;;;0.10;;
20627;SDS011;10473;42.734;24.258;2023-11-21T09:49:44;0.20;;;0.20;;
20627;SDS011;10473;42.734;24.258;2023-11-21T09:52:18;0.10;;;0.10;;
20627;SDS011;10473;42.734;24.258;2023-11-21T09:54:52;0.10;;;0.10;;
20627;SDS011;10473;42.734;24.258;2023-11-21T09:57:20;0.10;;;0.10;;
20627;SDS011;10473;42.734;24.258;2023-11-21T09:59:49;0.20;;;0.20;;
20627;SDS011;10473;42.734;24.258;2023-11-21T10:02:46;0.17;;;0.17;;
20627;SDS011;10473;42.734;24.258;2023-11-21T10:05:15;0.20;;;0.20;;
20627;SDS011;10473;42.734;24.258;2023-11-21T10:07:45;0.10;;;0.10;;
20627;SDS011;10473;42.734;24.258;2023-11-21T10:10:13;0.20;;;0.20;;
20627;SDS011;10473;42.734;24.258;2023-11-21T10:12:45;0.10;;;0.10;;
20627;SDS011;10473;42.734;24.258;2023-11-21T10:15:17;0.10;;;0.10;;
20627;SDS011;10473;42.734;24.258;2023-11-21T10:17:45;0.10;;;0.10;;
20627;SDS011;10473;42.734;24.258;2023-11-21T10:20:15;0.30;;;0.30;;
20627;SDS011;10473;42.734;24.258;2023-11-21T10:22:45;0.00;;;0.00;;
20627;SDS011;10473;42.734;24.258;2023-11-21T10:25:13;0.10;;;0.10;;
20627;SDS011;10473;42.734;24.258;2023-11-21T10:27:41;0.10;;;0.10;;
20627;SDS011;10473;42.734;24.258;2023-11-21T10:30:10;0.10;;;0.10;;
20627;SDS011;10473;42.734;24.258;2023-11-21T10:32:38;0.20;;;0.20;;
20627;SDS011;10473;42.734;24.258;2023-11-21T10:35:06;0.10;;;0.10;;
20627;SDS011;10473;42.734;24.258;2023-11-21T10:37:36;0.17;;;0.17;;
20627;SDS011;10473;42.734;24.258;2023-11-21T10:40:09;0.20;;;0.20;;
20627;SDS011;10473;42.734;24.258;2023-11-21T10:42:38;0.20;;;0.20;;
20627;SDS011;10473;42.734;24.258;2023-11-21T10:45:06;0.23;;;0.23;;
20627;SDS011;10473;42.734;24.258;2023-11-21T10:47:39;0.07;;;0.07;;
20627;SDS011;10473;42.734;24.258;2023-11-21T10:50:07;0.30;;;0.30;;
20627;SDS011;10473;42.734;24.258;2023-11-21T10:52:37;0.10;;;0.10;;
20627;SDS011;10473;42.734;24.258;2023-11-21T10:55:17;0.20;;;0.10;;
20627;SDS011;10473;42.734;24.258;2023-11-21T10:57:48;0.10;;;0.10;;
20627;SDS011;10473;42.734;24.258;2023-11-21T11:00:18;0.27;;;0.27;;
20627;SDS011;10473;42.734;24.258;2023-11-21T11:02:46;0.37;;;0.37;;
20627;SDS011;10473;42.734;24.258;2023-11-21T11:05:16;0.60;;;0.30;;
20627;SDS011;10473;42.734;24.258;2023-11-21T11:07:47;0.07;;;0.07;;
20627;SDS011;10473;42.734;24.258;2023-11-21T11:10:21;6.70;;;0.73;;
20627;SDS011;10473;42.734;24.258;2023-11-21T11:12:52;0.20;;;0.20;;
20627;SDS011;10473;42.734;24.258;2023-11-21T11:15:21;0.30;;;0.30;;
20627;SDS011;10473;42.734;24.258;2023-11-21T11:17:49;0.10;;;0.10;;
20627;SDS011;10473;42.734;24.258;2023-11-21T11:20:17;0.10;;;0.10;;
20627;SDS011;10473;42.734;24.258;2023-11-21T11:22:48;1.03;;;0.30;;
20627;SDS011;10473;42.734;24.258;2023-11-21T11:25:27;0.70;;;0.70;;
20627;SDS011;10473;42.734;24.258;2023-11-21T11:28:07;0.20;;;0.20;;
20627;SDS011;10473;42.734;24.258;2023-11-21T11:30:42;0.33;;;0.33;;
20627;SDS011;10473;42.734;24.258;2023-11-21T11:33:25;0.67;;;0.40;;
20627;SDS011;10473;42.734;24.258;2023-11-21T11:36:00;0.10;;;0.10;;
20627;SDS011;10473;42.734;24.258;2023-11-21T11:38:31;0.20;;;0.20;;
20627;SDS011;10473;42.734;24.258;2023-11-21T11:41:03;0.33;;;0.30;;
20627;SDS011;10473;42.734;24.258;2023-11-21T11:43:32;0.20;;;0.20;;
20627;SDS011;10473;42.734;24.258;2023-11-21T11:46:10;0.20;;;0.20;;
20627;SDS011;10473;42.734;24.258;2023-11-21T11:48:39;0.10;;;0.10;;
20627;SDS011;10473;42.734;24.258;2023-11-21T11:51:09;0.13;;;0.10;;
20627;SDS011;10473;42.734;24.258;2023-11-21T11:53:40;0.20;;;0.20;;
20627;SDS011;10473;42.734;24.258;2023-11-21T11:56:23;0.40;;;0.40;;
20627;SDS011;10473;42.734;24.258;2023-11-21T11:58:53;0.63;;;0.43;;
20627;SDS011;10473;42.734;24.258;2023-11-21T12:01:22;0.20;;;0.20;;
20627;SDS011;10473;42.734;24.258;2023-11-21T12:06:57;1.77;;;0.47;;
20627;SDS011;10473;42.734;24.258;2023-11-21T12:09:29;0.60;;;0.37;;
20627;SDS011;10473;42.734;24.258;2023-11-21T12:12:00;0.43;;;0.43;;
20627;SDS011;10473;42.734;24.258;2023-11-21T12:14:29;0.20;;;0.20;;
20627;SDS011;10473;42.734;24.258;2023-11-21T12:16:58;1.93;;;0.43;;
20627;SDS011;10473;42.734;24.258;2023-11-21T12:19:26;0.17;;;0.13;;
20627;SDS011;10473;42.734;24.258;2023-11-21T12:21:54;0.57;;;0.50;;
20627;SDS011;10473;42.734;24.258;2023-11-21T12:24:21;0.20;;;0.10;;
20627;SDS011;10473;42.734;24.258;2023-11-21T12:26:49;0.17;;;0.17;;
20627;SDS011;10473;42.734;24.258;2023-11-21T12:29:18;0.20;;;0.20;;
20627;SDS011;10473;42.734;24.258;2023-11-21T12:31:48;4.00;;;0.77;;
20627;SDS011;10473;42.734;24.258;2023-11-21T12:34:17;0.10;;;0.10;;
20627;SDS011;10473;42.734;24.258;2023-11-21T12:36:44;0.43;;;0.30;;
20627;SDS011;10473;42.734;24.258;2023-11-21T12:39:12;0.10;;;0.10;;
20627;SDS011;10473;42.734;24.258;2023-11-21T12:41:40;0.10;;;0.10;;
20627;SDS011;10473;42.734;24.258;2023-11-21T12:44:09;0.10;;;0.10;;
20627;SDS011;10473;42.734;24.258;2023-11-21T12:46:43;0.53;;;0.50;;
20627;SDS011;10473;42.734;24.258;2023-11-21T12:49:13;0.10;;;0.10;;
20627;SDS011;10473;42.734;24.258;2023-11-21T12:51:43;0.37;;;0.30;;
20627;SDS011;10473;42.734;24.258;2023-11-21T12:54:12;4.00;;;0.40;;
20627;SDS011;10473;42.734;24.258;2023-11-21T12:56:41;8.83;;;0.57;;
20627;SDS011;10473;42.734;24.258;2023-11-21T12:59:14;0.00;;;0.00;;
20627;SDS011;10473;42.734;24.258;2023-11-21T13:01:45;0.00;;;0.00;;
20627;SDS011;10473;42.734;24.258;2023-11-21T13:04:17;0.00;;;0.00;;
20627;SDS011;10473;42.734;24.258;2023-11-21T13:06:45;0.17;;;0.10;;
20627;SDS011;10473;42.734;24.258;2023-11-21T13:09:12;1.13;;;0.50;;
20627;SDS011;10473;42.734;24.258;2023-11-21T13:11:44;2.03;;;0.80;;
20627;SDS011;10473;42.734;24.258;2023-11-21T13:14:11;0.80;;;0.80;;
20627;SDS011;10473;42.734;24.258;2023-11-21T13:16:40;0.20;;;0.20;;
20627;SDS011;10473;42.734;24.258;2023-11-21T13:19:13;0.37;;;0.37;;
20627;SDS011;10473;42.734;24.258;2023-11-21T13:21:41;0.10;;;0.10;;
20627;SDS011;10473;42.734;24.258;2023-11-21T13:24:09;1.17;;;1.07;;
20627;SDS011;10473;42.734;24.258;2023-11-21T13:26:37;2.73;;;1.17;;
20627;SDS011;10473;42.734;24.258;2023-11-21T13:29:05;1.03;;;0.93;;
20627;SDS011;10473;42.734;24.258;2023-11-21T13:31:32;1.50;;;1.07;;
20627;SDS011;10473;42.734;24.258;2023-11-21T13:34:03;0.70;;;0.70;;
20627;SDS011;10473;42.734;24.258;2023-11-21T13:36:35;1.17;;;1.03;;
20627;SDS011;10473;42.734;24.258;2023-11-21T13:39:04;1.70;;;1.50;;
20627;SDS011;10473;42.734;24.258;2023-11-21T13:41:33;1.00;;;0.73;;
20627;SDS011;10473;42.734;24.258;2023-11-21T13:44:04;0.60;;;0.50;;
20627;SDS011;10473;42.734;24.258;2023-11-21T13:46:41;1.57;;;1.47;;
20627;SDS011;10473;42.734;24.258;2023-11-21T13:49:10;1.03;;;0.93;;
20627;SDS011;10473;42.734;24.258;2023-11-21T13:51:43;0.63;;;0.43;;
20627;SDS011;10473;42.734;24.258;2023-11-21T13:54:14;0.40;;;0.30;;
20627;SDS011;10473;42.734;24.258;2023-11-21T13:56:41;0.83;;;0.33;;
20627;SDS011;10473;42.734;24.258;2023-11-21T13:59:10;0.73;;;0.67;;
20627;SDS011;10473;42.734;24.258;2023-11-21T14:01:46;0.77;;;0.77;;
20627;SDS011;10473;42.734;24.258;2023-11-21T14:04:25;0.53;;;0.53;;
20627;SDS011;10473;42.734;24.258;2023-11-21T14:07:18;1.50;;;0.57;;
20627;SDS011;10473;42.734;24.258;2023-11-21T14:09:56;1.97;;;1.57;;
20627;SDS011;10473;42.734;24.258;2023-11-21T14:12:24;1.17;;;1.07;;
20627;SDS011;10473;42.734;24.258;2023-11-21T14:14:53;1.90;;;0.90;;
20627;SDS011;10473;42.734;24.258;2023-11-21T14:17:21;1.80;;;1.70;;
20627;SDS011;10473;42.734;24.258;2023-11-21T14:19:50;2.87;;;2.63;;
20627;SDS011;10473;42.734;24.258;2023-11-21T14:22:19;2.00;;;1.90;;
20627;SDS011;10473;42.734;24.258;2023-11-21T14:24:47;1.80;;;1.40;;
20627;SDS011;10473;42.734;24.258;2023-11-21T14:27:16;3.80;;;3.50;;
20627;SDS011;10473;42.734;24.258;2023-11-21T14:29:44;4.73;;;2.87;;
20627;SDS011;10473;42.734;24.258;2023-11-21T14:32:11;2.70;;;2.50;;
20627;SDS011;10473;42.734;24.258;2023-11-21T14:34:40;4.30;;;2.00;;
20627;SDS011;10473;42.734;24.258;2023-11-21T14:37:11;1.93;;;1.60;;
20627;SDS011;10473;42.734;24.258;2023-11-21T14:39:41;2.13;;;1.90;;
20627;SDS011;10473;42.734;24.258;2023-11-21T14:42:11;7.13;;;3.17;;
20627;SDS011;10473;42.734;24.258;2023-11-21T14:44:41;1.53;;;1.43;;
20627;SDS011;10473;42.734;24.258;2023-11-21T14:47:08;0.50;;;0.27;;